Terminal Aerodrome Forecast
Issued by NWS

Home | Current Version | Previous Version | Text Only | Print | Product List | Glossary On
Versions: 1 2 3 4 5 6 7 8 9 10 11 12 13 14 15
903
FTUS43 KMQT 150522
TAFSAW
TAF
KSAW 150522Z 1506/1606 23005KT 3SM -SHSN BKN020
     FM150700 26005KT 3SM -SHSN BKN020
     FM151400 32006KT P6SM -SHSN BKN035
     FM151800 32009KT P6SM -SHSN BKN030
     FM160000 31006KT P6SM BKN030
     FM160400 31005KT P6SM BKN035=

USA.gov is the U.S. government's official web portal to all federal, state and local government web resources and services.